createdAt,value
2018-07-22T00:00:43.047Z,35.57
2018-07-22T00:03:11.742Z,34.03
2018-07-22T00:05:40.402Z,34.67
2018-07-22T00:08:09.133Z,32.03
2018-07-22T00:10:37.810Z,33.43
2018-07-22T00:13:06.521Z,33.40
2018-07-22T00:15:35.204Z,32.93
2018-07-22T00:18:03.954Z,36.13
2018-07-22T00:20:32.620Z,35.57
2018-07-22T00:23:01.281Z,34.97
2018-07-22T00:25:29.985Z,35.87
2018-07-22T00:27:58.639Z,36.47
2018-07-22T00:30:27.359Z,35.27
2018-07-22T00:32:56.031Z,35.40
2018-07-22T00:35:24.738Z,37.53
2018-07-22T00:37:53.413Z,38.93
2018-07-22T00:40:22.102Z,38.00
2018-07-22T00:42:50.774Z,40.07
2018-07-22T00:45:19.486Z,39.10
2018-07-22T00:47:48.178Z,39.37
2018-07-22T00:50:16.874Z,40.73
2018-07-22T00:52:45.546Z,39.20
2018-07-22T00:55:14.207Z,38.83
2018-07-22T00:57:42.944Z,40.13
2018-07-22T01:00:11.672Z,39.00
2018-07-22T01:02:44.139Z,40.33
2018-07-22T01:05:16.963Z,40.00
2018-07-22T01:07:51.155Z,40.23
2018-07-22T01:10:21.364Z,38.40
2018-07-22T01:12:51.608Z,38.53
2018-07-22T01:15:23.047Z,40.60
2018-07-22T01:17:53.397Z,39.00
2018-07-22T01:20:23.170Z,41.00
2018-07-22T01:22:53.064Z,42.27
2018-07-22T01:25:23.209Z,39.77
2018-07-22T01:27:53.232Z,41.03
2018-07-22T01:30:23.260Z,40.90
2018-07-22T01:32:52.958Z,40.00
2018-07-22T01:35:21.668Z,39.80
2018-07-22T01:37:50.349Z,39.07
2018-07-22T01:40:19.053Z,41.03
2018-07-22T01:42:47.708Z,38.70
2018-07-22T01:45:16.578Z,37.97
2018-07-22T01:47:45.242Z,36.97
2018-07-22T01:50:13.925Z,36.63
2018-07-22T01:52:42.614Z,38.47
2018-07-22T01:55:11.249Z,40.60
2018-07-22T01:57:39.938Z,38.83
2018-07-22T02:00:08.625Z,38.20
2018-07-22T02:02:37.433Z,39.33
2018-07-22T02:05:06.233Z,37.37
2018-07-22T02:07:34.931Z,40.20
2018-07-22T02:10:03.637Z,36.37
2018-07-22T02:12:32.320Z,37.27
2018-07-22T02:15:00.997Z,39.33
2018-07-22T02:17:29.649Z,37.93
2018-07-22T02:19:58.341Z,38.80
2018-07-22T02:22:27.020Z,38.50
2018-07-22T02:24:55.699Z,38.83
2018-07-22T02:27:24.346Z,37.33
2018-07-22T02:29:53.034Z,38.50
2018-07-22T02:32:21.719Z,38.87
2018-07-22T02:34:50.402Z,37.30
2018-07-22T02:37:19.057Z,37.63
2018-07-22T02:39:47.753Z,37.87
2018-07-22T02:42:16.425Z,37.23
2018-07-22T02:44:45.110Z,39.97
2018-07-22T02:47:13.810Z,39.10
2018-07-22T02:49:42.468Z,38.90
2018-07-22T02:52:11.166Z,41.93
2018-07-22T02:54:39.813Z,39.17
2018-07-22T02:57:09.170Z,39.77
2018-07-22T02:59:37.843Z,38.60
2018-07-22T03:02:06.675Z,40.27
2018-07-22T03:04:35.354Z,40.30
2018-07-22T03:07:04.043Z,42.57
2018-07-22T03:09:32.739Z,40.93
2018-07-22T03:12:01.409Z,40.20
2018-07-22T03:14:30.127Z,39.03
2018-07-22T03:16:58.829Z,36.47
2018-07-22T03:19:27.490Z,35.17
2018-07-22T03:21:56.121Z,35.03
2018-07-22T03:24:24.815Z,34.77
2018-07-22T03:26:53.491Z,32.40
2018-07-22T03:29:22.191Z,29.17
2018-07-22T03:31:50.837Z,29.20
2018-07-22T03:34:19.517Z,25.87
2018-07-22T03:36:48.166Z,22.60
2018-07-22T03:39:16.829Z,24.90
2018-07-22T03:41:45.477Z,25.30
2018-07-22T03:44:14.357Z,24.20
2018-07-22T03:46:43.034Z,25.93
2018-07-22T03:49:11.690Z,24.83
2018-07-22T03:51:40.398Z,25.40
2018-07-22T03:54:09.121Z,25.83
2018-07-22T03:56:37.798Z,26.43
2018-07-22T03:59:06.718Z,24.57
2018-07-22T04:01:35.437Z,27.30
2018-07-22T04:04:04.161Z,25.30
2018-07-22T04:06:32.845Z,24.43
2018-07-22T04:09:01.510Z,24.53
2018-07-22T04:11:30.206Z,22.83
2018-07-22T04:13:58.871Z,24.30
2018-07-22T04:16:27.541Z,23.37
2018-07-22T04:18:56.221Z,23.80
2018-07-22T04:21:25.229Z,22.00
2018-07-22T04:23:53.917Z,23.53
2018-07-22T04:26:22.713Z,22.20
2018-07-22T04:28:51.783Z,22.07
2018-07-22T04:31:20.757Z,21.43
2018-07-22T04:33:49.467Z,20.07
2018-07-22T04:36:18.122Z,20.50
2018-07-22T04:38:46.801Z,23.73
2018-07-22T04:41:15.482Z,21.43
2018-07-22T04:43:44.163Z,21.23
2018-07-22T04:46:12.876Z,21.67
2018-07-22T04:48:41.530Z,20.73
2018-07-22T04:51:10.269Z,23.30
2018-07-22T04:53:38.967Z,23.00
2018-07-22T04:56:07.666Z,22.97
2018-07-22T04:58:36.336Z,23.27
2018-07-22T05:01:05.110Z,23.43
2018-07-22T05:03:33.784Z,24.20
2018-07-22T05:06:02.469Z,24.63
2018-07-22T05:08:31.189Z,24.57
2018-07-22T05:10:59.870Z,25.30
2018-07-22T05:13:28.620Z,24.13
2018-07-22T05:15:57.344Z,25.00
2018-07-22T05:18:26.034Z,23.70
2018-07-22T05:20:54.710Z,24.17
2018-07-22T05:23:23.530Z,24.57
2018-07-22T05:25:52.238Z,23.83
2018-07-22T05:28:21.107Z,22.57
2018-07-22T05:30:49.743Z,21.50
2018-07-22T05:33:18.405Z,22.00
2018-07-22T05:35:47.142Z,22.97
2018-07-22T05:38:15.783Z,21.43
2018-07-22T05:40:44.534Z,20.53
2018-07-22T05:43:13.235Z,21.83
2018-07-22T05:45:41.929Z,19.73
2018-07-22T05:48:10.682Z,20.97
2018-07-22T05:50:39.369Z,20.33
2018-07-22T05:53:08.138Z,20.10
2018-07-22T05:55:36.843Z,20.90
2018-07-22T05:58:05.701Z,20.63
2018-07-22T06:00:34.421Z,21.37
2018-07-22T06:03:03.800Z,20.40
2018-07-22T06:05:32.536Z,19.20
2018-07-22T06:08:01.182Z,20.50
2018-07-22T06:10:29.858Z,18.77
2018-07-22T06:12:58.738Z,18.17
2018-07-22T06:15:27.498Z,18.00
2018-07-22T06:17:56.182Z,17.17
2018-07-22T06:20:24.849Z,18.53
2018-07-22T06:22:53.541Z,18.80
2018-07-22T06:25:22.193Z,18.87
2018-07-22T06:27:50.849Z,17.93
2018-07-22T06:30:19.515Z,18.57
2018-07-22T06:32:48.222Z,18.93
2018-07-22T06:35:16.941Z,17.90
2018-07-22T06:37:45.641Z,16.70
2018-07-22T06:40:14.286Z,18.10
2018-07-22T06:42:43.119Z,18.10
2018-07-22T06:45:11.790Z,19.63
2018-07-22T06:47:40.498Z,18.33
2018-07-22T06:50:09.197Z,19.57
2018-07-22T06:52:37.864Z,17.90
2018-07-22T06:55:06.565Z,17.60
2018-07-22T06:57:35.254Z,17.20
2018-07-22T07:00:04.302Z,16.83
2018-07-22T07:02:32.946Z,16.73
2018-07-22T07:05:01.662Z,17.20
2018-07-22T07:07:30.358Z,16.83
2018-07-22T07:09:59.037Z,15.73
2018-07-22T07:12:27.714Z,16.70
2018-07-22T07:14:56.418Z,16.80
2018-07-22T07:17:25.167Z,17.13
2018-07-22T07:19:53.854Z,16.17
2018-07-22T07:22:22.587Z,18.00
2018-07-22T07:24:51.486Z,17.73
2018-07-22T07:27:20.207Z,17.93
2018-07-22T07:29:49.053Z,17.87
2018-07-22T07:32:17.853Z,17.93
2018-07-22T07:34:46.505Z,19.67
2018-07-22T07:37:15.189Z,18.80
2018-07-22T07:39:43.910Z,19.67
2018-07-22T07:42:12.659Z,20.60
2018-07-22T07:44:41.324Z,19.63
2018-07-22T07:47:10.049Z,19.53
2018-07-22T07:49:38.729Z,20.53
2018-07-22T07:52:07.406Z,19.60
2018-07-22T07:54:36.086Z,19.43
2018-07-22T07:57:04.757Z,19.03
2018-07-22T07:59:33.519Z,19.23
2018-07-22T08:02:02.219Z,19.60
2018-07-22T08:04:30.927Z,20.03
2018-07-22T08:06:59.704Z,18.37
2018-07-22T08:09:28.369Z,19.77
2018-07-22T08:11:57.081Z,19.53
2018-07-22T08:14:25.761Z,19.67
2018-07-22T08:16:54.466Z,18.90
2018-07-22T08:19:23.131Z,19.07
2018-07-22T08:21:51.972Z,19.20
2018-07-22T08:24:20.557Z,17.90
2018-07-22T08:26:49.275Z,18.57
2018-07-22T08:29:20.772Z,20.00
2018-07-22T08:31:50.146Z,18.37
2018-07-22T08:34:19.104Z,18.87
2018-07-22T08:36:48.271Z,20.13
2018-07-22T08:39:18.393Z,21.13
2018-07-22T08:41:47.441Z,19.47
2018-07-22T08:44:16.166Z,20.33
2018-07-22T08:46:44.810Z,19.03
2018-07-22T08:49:13.488Z,19.47
2018-07-22T08:51:42.293Z,19.77
2018-07-22T08:54:10.973Z,19.97
2018-07-22T08:56:39.736Z,20.27
2018-07-22T08:59:08.463Z,19.00
2018-07-22T09:01:37.203Z,19.47
2018-07-22T09:04:05.895Z,19.80
2018-07-22T09:06:41.314Z,19.47
2018-07-22T09:09:11.315Z,20.90
2018-07-22T09:11:40.201Z,18.63
2018-07-22T09:14:09.606Z,21.90
2018-07-22T09:16:38.301Z,21.47
2018-07-22T09:19:07.138Z,21.03
2018-07-22T09:21:36.177Z,22.03
2018-07-22T09:24:04.860Z,20.47
2018-07-22T09:26:33.539Z,22.17
2018-07-22T09:29:02.226Z,21.43
2018-07-22T09:31:30.917Z,20.27
2018-07-22T09:33:59.656Z,22.60
2018-07-22T09:36:28.361Z,24.03
2018-07-22T09:38:57.078Z,22.97
2018-07-22T09:41:25.777Z,23.03
2018-07-22T09:43:54.481Z,23.20
2018-07-22T09:46:23.257Z,23.47
2018-07-22T09:48:51.952Z,26.30
2018-07-22T09:51:20.651Z,23.83
2018-07-22T09:53:49.388Z,24.67
2018-07-22T09:56:18.124Z,25.07
2018-07-22T09:58:46.806Z,23.07
2018-07-22T10:01:15.471Z,24.30
2018-07-22T10:03:44.194Z,21.97
2018-07-22T10:06:12.864Z,22.97
2018-07-22T10:08:41.566Z,21.93
2018-07-22T10:11:10.318Z,21.87
2018-07-22T10:13:39.003Z,23.77
2018-07-22T10:16:07.864Z,22.67
2018-07-22T10:18:36.593Z,23.47
2018-07-22T10:21:05.314Z,22.93
2018-07-22T10:23:34.042Z,21.83
2018-07-22T10:26:02.713Z,22.27
2018-07-22T10:28:31.414Z,20.90
2018-07-22T10:31:00.201Z,21.10
2018-07-22T10:33:28.889Z,21.40
2018-07-22T10:35:57.693Z,22.07
2018-07-22T10:38:26.382Z,21.87
2018-07-22T10:40:55.071Z,20.47
2018-07-22T10:43:23.900Z,20.07
2018-07-22T10:45:52.563Z,20.03
2018-07-22T10:48:21.252Z,20.37
2018-07-22T10:50:49.948Z,20.30
2018-07-22T10:53:18.609Z,22.63
2018-07-22T10:55:47.309Z,22.90
2018-07-22T10:58:15.985Z,23.17
2018-07-22T11:00:44.654Z,22.10
2018-07-22T11:03:13.369Z,22.33
2018-07-22T11:05:42.070Z,21.97
2018-07-22T11:08:10.826Z,21.60
2018-07-22T11:10:39.494Z,21.90
2018-07-22T11:13:08.240Z,20.70
2018-07-22T11:15:36.922Z,22.00
2018-07-22T11:18:05.679Z,21.00
2018-07-22T11:20:34.402Z,22.10
2018-07-22T11:23:03.191Z,20.90
2018-07-22T11:25:31.859Z,20.07
2018-07-22T11:28:00.582Z,18.87
2018-07-22T11:30:29.301Z,19.80
2018-07-22T11:32:57.992Z,19.53
2018-07-22T11:35:26.755Z,19.40
2018-07-22T11:37:55.431Z,19.57
2018-07-22T11:40:24.124Z,20.23
2018-07-22T11:42:52.992Z,21.93
2018-07-22T11:45:21.696Z,19.23
2018-07-22T11:47:50.355Z,20.27
2018-07-22T11:50:19.064Z,18.27
2018-07-22T11:52:47.717Z,18.40
2018-07-22T11:55:16.438Z,18.53
2018-07-22T11:57:45.121Z,18.93
2018-07-22T12:00:13.919Z,19.60
2018-07-22T12:02:42.542Z,18.40
2018-07-22T12:05:11.192Z,17.47
2018-07-22T12:07:39.921Z,17.70
2018-07-22T12:10:08.594Z,17.80
2018-07-22T12:12:37.337Z,17.10
2018-07-22T12:15:06.135Z,17.17
2018-07-22T12:17:34.830Z,16.30
2018-07-22T12:20:03.570Z,17.40
2018-07-22T12:22:32.245Z,14.90
2018-07-22T12:25:00.996Z,16.60
2018-07-22T12:27:29.743Z,17.40
2018-07-22T12:29:58.443Z,16.80
2018-07-22T12:32:27.080Z,16.57
2018-07-22T12:34:55.811Z,16.57
2018-07-22T12:37:24.484Z,16.20
2018-07-22T12:39:53.179Z,16.10
2018-07-22T12:42:21.845Z,16.70
2018-07-22T12:44:50.537Z,16.23
2018-07-22T12:47:19.226Z,17.13
2018-07-22T12:49:47.924Z,16.90
2018-07-22T12:52:16.617Z,16.60
2018-07-22T12:54:45.299Z,16.93
2018-07-22T12:57:14.000Z,16.90
2018-07-22T12:59:42.702Z,18.20
2018-07-22T13:02:11.410Z,16.60
2018-07-22T13:04:46.645Z,17.57
2018-07-22T13:07:15.350Z,17.37
2018-07-22T13:09:44.019Z,16.60
2018-07-22T13:12:12.761Z,17.10
2018-07-22T13:14:41.549Z,17.60
2018-07-22T13:17:10.279Z,16.03
2018-07-22T13:19:38.985Z,16.33
2018-07-22T13:22:07.663Z,16.80
2018-07-22T13:24:36.346Z,17.53
2018-07-22T13:27:05.183Z,17.57
2018-07-22T13:29:33.878Z,17.30
2018-07-22T13:32:02.663Z,16.80
2018-07-22T13:34:31.389Z,16.30
2018-07-22T13:37:00.065Z,16.50
2018-07-22T13:39:28.748Z,15.93
2018-07-22T13:41:57.441Z,15.93
2018-07-22T13:44:26.141Z,15.40
2018-07-22T13:46:54.831Z,16.20
2018-07-22T13:49:23.558Z,17.33
2018-07-22T13:51:52.222Z,17.43
2018-07-22T13:54:20.922Z,16.00
2018-07-22T13:56:49.621Z,15.70
2018-07-22T13:59:18.285Z,15.63
2018-07-22T14:01:46.985Z,14.67
2018-07-22T14:04:15.667Z,15.90
2018-07-22T14:06:44.403Z,15.20
2018-07-22T14:09:13.297Z,16.30
2018-07-22T14:11:42.030Z,15.73
2018-07-22T14:14:11.143Z,16.83
2018-07-22T14:16:39.850Z,15.97
2018-07-22T14:19:08.562Z,14.33
2018-07-22T14:21:37.264Z,15.63
2018-07-22T14:24:05.951Z,15.07
2018-07-22T14:26:34.689Z,15.77
2018-07-22T14:29:03.591Z,15.63
2018-07-22T14:31:32.294Z,15.63
2018-07-22T14:34:00.993Z,14.70
2018-07-22T14:36:29.749Z,15.93
2018-07-22T14:38:58.433Z,15.80
2018-07-22T14:41:27.111Z,15.97
2018-07-22T14:43:55.909Z,16.83
2018-07-22T14:46:24.636Z,15.70
2018-07-22T14:48:53.318Z,16.20
2018-07-22T14:51:22.060Z,15.97
2018-07-22T14:53:50.751Z,16.03
2018-07-22T14:56:19.438Z,16.00
2018-07-22T14:58:48.114Z,19.53
2018-07-22T15:01:16.838Z,20.77
2018-07-22T15:03:45.537Z,18.87
2018-07-22T15:06:14.430Z,18.80
2018-07-22T15:08:43.437Z,20.37
2018-07-22T15:11:12.151Z,18.47
2018-07-22T15:13:40.912Z,16.37
2018-07-22T15:16:09.598Z,15.77
2018-07-22T15:18:45.744Z,15.00
2018-07-22T15:21:37.797Z,16.63
2018-07-22T15:24:30.284Z,16.63
2018-07-22T15:26:58.950Z,15.77
2018-07-22T15:29:27.654Z,15.60
2018-07-22T15:31:56.422Z,19.57
2018-07-22T15:34:25.157Z,18.13
2018-07-22T15:36:53.794Z,17.63
2018-07-22T15:39:22.446Z,17.30
2018-07-22T15:41:51.492Z,16.80
2018-07-22T15:44:20.397Z,17.43
2018-07-22T15:46:49.086Z,16.70
2018-07-22T15:49:17.790Z,16.67
2018-07-22T15:51:46.518Z,15.80
2018-07-22T15:54:15.186Z,15.80
2018-07-22T15:56:43.837Z,16.33
2018-07-22T15:59:12.541Z,15.97
2018-07-22T16:01:41.244Z,15.40
2018-07-22T16:04:09.942Z,15.47
2018-07-22T16:06:38.719Z,16.97
2018-07-22T16:09:09.266Z,14.60
2018-07-22T16:11:38.026Z,15.77
2018-07-22T16:14:06.749Z,15.10
2018-07-22T16:16:35.509Z,16.27
2018-07-22T16:19:04.229Z,15.93
2018-07-22T16:21:32.942Z,16.07
2018-07-22T16:24:01.731Z,15.97
2018-07-22T16:26:30.461Z,16.63
2018-07-22T16:28:59.118Z,16.17
2018-07-22T16:31:28.001Z,15.10
2018-07-22T16:33:56.724Z,15.33
2018-07-22T16:36:25.451Z,15.93
2018-07-22T16:38:54.136Z,15.83
2018-07-22T16:41:22.818Z,16.07
2018-07-22T16:43:51.530Z,15.07
2018-07-22T16:46:20.220Z,14.30
2018-07-22T16:48:48.922Z,15.83
2018-07-22T16:51:17.626Z,15.07
2018-07-22T16:53:46.361Z,15.23
2018-07-22T16:56:15.032Z,15.90
2018-07-22T16:58:43.725Z,15.53
2018-07-22T17:01:12.515Z,14.83
2018-07-22T17:03:41.209Z,16.37
2018-07-22T17:06:09.931Z,14.23
2018-07-22T17:08:38.629Z,14.70
2018-07-22T17:11:07.033Z,14.83
2018-07-22T17:13:35.731Z,15.03
2018-07-22T17:16:04.493Z,15.93
2018-07-22T17:18:33.177Z,15.13
2018-07-22T17:21:02.348Z,15.87
2018-07-22T17:23:31.264Z,14.47
2018-07-22T17:26:00.007Z,15.30
2018-07-22T17:28:29.348Z,15.20
2018-07-22T17:30:58.087Z,14.70
2018-07-22T17:33:26.851Z,15.90
2018-07-22T17:35:56.128Z,15.87
2018-07-22T17:38:24.910Z,16.20
2018-07-22T17:40:53.615Z,15.17
2018-07-22T17:43:22.508Z,16.70
2018-07-22T17:45:50.961Z,16.33
2018-07-22T17:48:19.315Z,14.73
2018-07-22T17:50:48.070Z,15.17
2018-07-22T17:53:16.792Z,14.50
2018-07-22T17:55:45.505Z,15.30
2018-07-22T17:58:14.221Z,14.70
2018-07-22T18:00:43.040Z,14.17
2018-07-22T18:03:21.862Z,14.40
2018-07-22T18:05:50.926Z,14.73
2018-07-22T18:08:19.820Z,15.00
2018-07-22T18:10:49.110Z,15.27
2018-07-22T18:13:17.948Z,15.23
2018-07-22T18:15:46.741Z,15.23
2018-07-22T18:18:15.959Z,15.10
2018-07-22T18:20:47.892Z,15.27
2018-07-22T18:23:16.713Z,15.40
2018-07-22T18:25:46.247Z,15.70
2018-07-22T18:28:15.442Z,15.47
2018-07-22T18:30:44.676Z,15.10
2018-07-22T18:33:13.497Z,16.07
2018-07-22T18:35:42.718Z,15.20
2018-07-22T18:38:12.304Z,15.73
2018-07-22T18:40:40.986Z,15.03
2018-07-22T18:43:09.742Z,15.03
2018-07-22T18:45:38.512Z,16.33
2018-07-22T18:48:07.279Z,15.47
2018-07-22T18:50:36.022Z,16.40
2018-07-22T18:53:04.760Z,16.07
2018-07-22T18:55:34.153Z,15.03
2018-07-22T18:58:02.919Z,17.03
2018-07-22T19:00:31.692Z,16.27
2018-07-22T19:03:00.411Z,16.67
2018-07-22T19:05:29.187Z,16.93
2018-07-22T19:07:57.899Z,17.43
2018-07-22T19:10:26.627Z,16.87
2018-07-22T19:12:55.452Z,16.93
2018-07-22T19:15:23.881Z,16.53
2018-07-22T19:17:52.589Z,16.07
2018-07-22T19:20:21.397Z,16.83
2018-07-22T19:22:50.136Z,16.80
2018-07-22T19:25:18.899Z,16.70
2018-07-22T19:27:47.641Z,15.80
2018-07-22T19:30:16.838Z,17.47
2018-07-22T19:32:45.566Z,17.43
2018-07-22T19:35:14.258Z,17.10
2018-07-22T19:37:43.070Z,17.13
2018-07-22T19:40:11.909Z,16.27
2018-07-22T19:42:40.513Z,17.63
2018-07-22T19:45:09.214Z,17.43
2018-07-22T19:47:37.896Z,17.00
2018-07-22T19:50:06.621Z,17.13
2018-07-22T19:52:35.368Z,17.27
2018-07-22T19:55:04.285Z,17.93
2018-07-22T19:57:33.018Z,17.03
2018-07-22T20:00:01.770Z,16.40
2018-07-22T20:02:30.525Z,18.07
2018-07-22T20:04:59.267Z,18.10
2018-07-22T20:07:28.022Z,16.77
2018-07-22T20:09:56.691Z,17.77
2018-07-22T20:12:25.436Z,17.80
2018-07-22T20:14:54.136Z,18.47
2018-07-22T20:17:22.869Z,18.53
2018-07-22T20:19:51.595Z,19.07
2018-07-22T20:22:20.388Z,19.53
2018-07-22T20:24:49.072Z,18.87
2018-07-22T20:27:17.849Z,17.97
2018-07-22T20:29:46.532Z,18.47
2018-07-22T20:32:15.218Z,18.47
2018-07-22T20:34:45.041Z,19.77
2018-07-22T20:37:13.774Z,19.97
2018-07-22T20:39:42.843Z,18.93
2018-07-22T20:42:11.562Z,19.73
2018-07-22T20:44:40.270Z,19.00
2018-07-22T20:47:08.999Z,20.50
2018-07-22T20:49:37.673Z,18.63
2018-07-22T20:52:06.427Z,19.53
2018-07-22T20:54:35.118Z,19.43
2018-07-22T20:57:03.818Z,19.20
2018-07-22T20:59:32.515Z,19.87
2018-07-22T21:02:01.206Z,20.13
2018-07-22T21:04:29.915Z,18.93
2018-07-22T21:06:58.604Z,20.37
2018-07-22T21:09:27.324Z,20.17
2018-07-22T21:13:06.821Z,19.90
2018-07-22T21:15:35.556Z,24.37
2018-07-22T21:18:04.332Z,23.27
2018-07-22T21:20:32.999Z,23.23
2018-07-22T21:23:01.699Z,25.03
2018-07-22T21:25:30.414Z,22.50
2018-07-22T21:27:59.123Z,23.53
2018-07-22T21:30:27.858Z,27.43
2018-07-22T21:32:56.549Z,22.53
2018-07-22T21:35:25.261Z,21.70
2018-07-22T21:37:53.971Z,21.50
2018-07-22T21:40:22.731Z,21.87
2018-07-22T21:42:51.392Z,22.40
2018-07-22T21:45:20.169Z,22.23
2018-07-22T21:47:48.875Z,21.37
2018-07-22T21:50:17.629Z,21.50
2018-07-22T21:52:46.381Z,22.00
2018-07-22T21:55:15.102Z,21.63
2018-07-22T21:57:43.917Z,21.33
2018-07-22T22:00:34.054Z,20.77
2018-07-22T22:03:04.418Z,22.33
2018-07-22T22:05:33.101Z,22.63
2018-07-22T22:08:02.389Z,22.17
2018-07-22T22:10:31.060Z,22.10
2018-07-22T22:12:59.794Z,22.27
2018-07-22T22:15:31.014Z,22.13
2018-07-22T22:18:00.929Z,22.23
2018-07-22T22:20:29.961Z,24.23
2018-07-22T22:22:58.652Z,22.73
2018-07-22T22:25:27.410Z,24.40
2018-07-22T22:27:56.045Z,22.57
2018-07-22T22:30:24.803Z,23.13
2018-07-22T22:32:53.488Z,24.20
2018-07-22T22:35:22.227Z,22.50
2018-07-22T22:37:50.893Z,24.33
2018-07-22T22:40:19.607Z,25.20
2018-07-22T22:42:48.285Z,23.20
2018-07-22T22:45:16.951Z,24.33
2018-07-22T22:47:45.717Z,24.43
2018-07-22T22:50:14.426Z,23.63
2018-07-22T22:52:43.198Z,24.57
2018-07-22T22:55:11.928Z,25.00
2018-07-22T22:57:46.864Z,24.67
2018-07-22T23:00:15.578Z,24.63
2018-07-22T23:02:44.287Z,23.70
2018-07-22T23:05:12.982Z,22.43
2018-07-22T23:07:41.694Z,24.47
2018-07-22T23:10:10.378Z,25.60
2018-07-22T23:12:39.074Z,24.53
2018-07-22T23:15:07.746Z,25.63
2018-07-22T23:17:36.447Z,24.40
2018-07-22T23:20:05.335Z,24.90
2018-07-22T23:22:34.006Z,25.20
2018-07-22T23:25:02.754Z,25.17
2018-07-22T23:27:31.414Z,24.70
2018-07-22T23:30:00.132Z,24.93
2018-07-22T23:32:28.869Z,24.53
2018-07-22T23:34:57.602Z,24.77
2018-07-22T23:37:26.320Z,25.10
2018-07-22T23:39:55.023Z,23.30
2018-07-22T23:42:23.689Z,25.40
2018-07-22T23:44:52.354Z,24.87
2018-07-22T23:47:21.054Z,26.23
2018-07-22T23:49:49.734Z,25.30
2018-07-22T23:52:18.475Z,25.97
2018-07-22T23:54:47.161Z,26.77
2018-07-22T23:57:15.861Z,27.70
2018-07-22T23:59:44.577Z,26.70
